ROMMA est une association bénévole à but non lucratif. Votre soutien est indispensable : ADHERER à ROMMA ou FAIRE un DON

La Beaume - (05, Hautes Alpes)

Buëch (820 m)   Longitude: 5° 40' 9'' E   Latitude: 44° 32' 3'' N Station partenaire n°75
 

Détail journalier du     <<     >>

Température Precipitation Humidité Pression Vent Dir Rafale Dir. rafale Ensol.
Heure (°C) (mm) (%) (hPa) (km/h) (km/h) (min)
01:00 7.107110152SO6N0
02:00 5.807710161N6N0
03:00 4.6080101503NO0
04:00 3.608210161N6NNO0
05:00 2.8085101503ONO0
06:00 2.20861016000
07:00 1.6087101605ONO0
08:00 1.408810161N6OSO0
09:00 5.208210161N8SO30
10:00 8.6066101603NE60
11:00 10.805710162ENE8ENE0
12:00 12.805610162NNE10NE0
13:00 15.106110157S27NO0
14:00 18.405610136N21ONO30
15:00 17.7058101313ONO29NO30
16:00 17.4061101213ONO29NO30
17:00 17.0061101215ONO35ONO60
18:00 15.8064101214O34ONO60
19:00 14.8067101211O26ONO30
20:00 14.3066101210ONO26NO0
21:00 13.906510138ONO18ONO0
22:00 14.0065101210NO24NO0
23:00 13.7067101211ONO29ONO0
minuit 13.1070101311N26NNE0

Graphique du 04-10-2019

 

Serveur OMMA